Terminal Aerodrome Forecast
Issued by NWS Albany, NY

Home | Current Version | Previous Version | Text Only | Print | Product List | Glossary On
Versions: 1 2 3 4 5 6 7 8 9 10 11 12 13 14 15 16 17 18 19
000
FTUS41 KALY 230004 AAA
TAFGFL
TAF AMD
KGFL 230004Z 2300/2324 30010KT P6SM VCSH BKN080
      TEMPO 2300/2302 35015G25KT
     FM230200 35008KT P6SM FEW080
     FM230600 VRB03KT P6SM SKC
     FM231400 23010KT P6SM FEW060=

USA.gov is the U.S. government's official web portal to all federal, state and local government web resources and services.